createdAt,value
2023-02-19T00:04:41.994Z,11.00
2023-02-19T00:24:41.711Z,11.20
2023-02-19T00:44:41.442Z,8.50
2023-02-19T01:04:41.201Z,7.30
2023-02-19T01:24:40.910Z,7.10
2023-02-19T01:44:40.634Z,3.30
2023-02-19T02:04:40.343Z,3.60
2023-02-19T02:24:40.098Z,2.40
2023-02-19T02:44:39.774Z,1.90
2023-02-19T03:04:39.495Z,2.90
2023-02-19T03:24:39.227Z,2.50
2023-02-19T03:44:38.951Z,4.00
2023-02-19T04:04:38.712Z,2.10
2023-02-19T04:24:38.377Z,2.50
2023-02-19T04:44:38.090Z,2.60
2023-02-19T05:04:37.891Z,2.10
2023-02-19T05:24:37.597Z,1.20
2023-02-19T05:44:37.325Z,1.70
2023-02-19T06:04:36.982Z,1.90
2023-02-19T06:24:36.717Z,0.90
2023-02-19T06:44:36.493Z,2.40
2023-02-19T07:04:43.190Z,1.80
2023-02-19T07:24:35.905Z,2.20
2023-02-19T07:44:35.641Z,2.30
2023-02-19T08:04:35.385Z,1.70
2023-02-19T08:24:35.116Z,2.70
2023-02-19T08:44:34.855Z,3.70
2023-02-19T09:04:34.611Z,3.00
2023-02-19T09:24:34.340Z,2.20
2023-02-19T09:44:34.009Z,4.00
2023-02-19T10:04:33.727Z,3.20
2023-02-19T10:24:33.468Z,1.90
2023-02-19T10:44:33.197Z,2.40
2023-02-19T11:04:32.965Z,3.40
2023-02-19T11:24:32.624Z,1.30
2023-02-19T11:44:32.409Z,1.00
2023-02-19T12:04:32.077Z,2.40
2023-02-19T12:24:31.811Z,2.50
2023-02-19T12:44:31.576Z,1.00
2023-02-19T13:04:31.288Z,1.20
2023-02-19T13:24:31.024Z,1.10
2023-02-19T13:44:30.757Z,0.50
2023-02-19T14:04:30.497Z,1.10
2023-02-19T14:24:30.233Z,0.30
2023-02-19T14:44:29.995Z,0.80
2023-02-19T15:04:29.769Z,1.00
2023-02-19T15:24:29.449Z,0.50
2023-02-19T15:44:29.220Z,1.00
2023-02-19T16:04:28.881Z,2.60
2023-02-19T16:24:28.628Z,0.90
2023-02-19T16:44:28.369Z,1.90
2023-02-19T17:04:28.097Z,1.80
2023-02-19T17:24:27.784Z,1.10
2023-02-19T17:44:27.512Z,1.40
2023-02-19T18:04:27.258Z,2.70
2023-02-19T18:24:26.972Z,1.20
2023-02-19T18:44:26.708Z,2.70
2023-02-19T19:04:26.465Z,2.10
2023-02-19T19:24:26.174Z,1.50
2023-02-19T19:44:25.903Z,1.40
2023-02-19T20:04:25.618Z,1.50
2023-02-19T20:24:25.334Z,3.10
2023-02-19T20:44:25.044Z,2.00
2023-02-19T21:04:24.751Z,2.00
2023-02-19T21:24:24.512Z,2.50
2023-02-19T21:44:24.206Z,1.30
2023-02-19T22:04:23.946Z,2.10
2023-02-19T22:24:23.643Z,2.10
2023-02-19T22:44:23.416Z,0.90
2023-02-19T23:04:23.249Z,2.40
2023-02-19T23:24:22.839Z,2.70
2023-02-19T23:44:22.573Z,3.10
